• Join FlightAware (Why Join?)
  • Login
  • US Flag 
01:59AM EDT


 

Airport Tracker/Info


-or-


 

Live Flight TrackerFlight Track Log ✈ DAL1979 ✈ 17-May-2013 ✈ KMSP - KMCO

Flight Track Log - Related Links

Times and Time Zones

All times are in EDT time to prevent confusion due to time zone crossing. See the DAL1979 flight status page for this flight to view local times or setup timezone preferences in your user account.

Time Position Orientation Groundspeed Altitude Reporting Facility
EDT Latitude Longitude Course Direction KTS MPH feet Rate Location/Type
12:00PM 44.8790 -93.2120 125° Southeast 167 192 800  Level FlightAware
12:00PM 44.8750 -93.2030 122° Southeast 166 191 1,200 2,400 Climbing FlightAware
12:01PM 44.8630 -93.1740 120° Southeast 179 206 2,400 1,980 Climbing FlightAware
12:01PM 44.8500 -93.1400 118° Southeast 211 243 3,200 1,500 Climbing FlightAware
12:02PM 44.8380 -93.1080 118° Southeast 239 275 3,800 2,040 Climbing FlightAware
12:02PM 44.8210 -93.0660 120° Southeast 255 293 5,100 2,400 Climbing FlightAware
12:03PM 44.8020 -93.0230 122° Southeast 272 313 6,200 2,220 Climbing FlightAware
12:03PM 44.7860 -93.0060 143° Southeast 278 320 6,800 2,400 Climbing FlightAware
12:03PM 44.7680 -92.9980 162° South 281 323 7,400 2,520 Climbing FlightAware
12:03PM 44.7430 -92.9880 164° South 287 330 8,300 2,640 Climbing FlightAware
12:04PM 44.7090 -92.9760 166° South 294 338 9,400 2,100 Climbing FlightAware
12:05PM 44.6540 -92.9550 165° South 322 371 10,600 1,380 Climbing FlightAware
12:05PM 44.5860 -92.9280 164° South 367 422 11,400 1,380 Climbing FlightAware
12:06PM 44.5190 -92.8950 161° South 391 450 12,600 2,040 Climbing FlightAware
12:07PM 44.4530 -92.8240 142° Southeast 403 464 14,300 3,240 Climbing FlightAware
12:07PM 44.4050 -92.7430 130° Southeast 390 449 17,200 3,720 Climbing FlightAware
12:08PM 44.3610 -92.6680 129° Southeast 381 438 19,300 2,160 Climbing FlightAware
12:09PM 44.3110 -92.5820 129° Southeast 392 451 20,300 1,440 Climbing FlightAware
12:09PM 44.2680 -92.5000 126° Southeast 400 460 21,400 1,500 Climbing FlightAware
12:10PM 44.2340 -92.4070 117° Southeast 407 468 22,300 1,380 Climbing FlightAware
12:11PM 44.1940 -92.2980 117° Southeast 417 480 23,400 1,320 Climbing FlightAware
12:12PM 44.1530 -92.2060 122° Southeast 423 487 24,200 1,200 Climbing FlightAware
12:12PM 44.1080 -92.1170 125° Southeast 430 495 25,000 900 Climbing FlightAware
12:13PM 44.0370 -92.0380 141° Southeast 442 509 25,500 900 Climbing FlightAware
12:14PM 43.9680 -91.9800 149° Southeast 448 516 26,300 1,080 Climbing FlightAware
12:14PM 43.8840 -91.9110 149° Southeast 453 521 27,100 1,080 Climbing FlightAware
12:15PM 43.8120 -91.8510 149° Southeast 458 527 27,900 1,020 Climbing FlightAware
12:16PM 43.7330 -91.7850 149° Southeast 462 532 28,600 900 Climbing FlightAware
12:16PM 43.6580 -91.7220 149° Southeast 466 536 29,200 900 Climbing FlightAware
12:17PM 43.5720 -91.6510 149° Southeast 470 541 29,900 960 Climbing FlightAware
12:18PM 43.4980 -91.5910 150° Southeast 471 542 30,600 1,080 Climbing FlightAware
12:19PM 43.4240 -91.5290 149° Southeast 471 542 31,400 960 Climbing FlightAware
12:19PM 43.3400 -91.4610 150° Southeast 474 545 32,000 720 Climbing FlightAware
12:20PM 43.2640 -91.3990 149° Southeast 477 549 32,500 660 Climbing FlightAware
12:21PM 43.1790 -91.3300 149° Southeast 472 543 33,000 900 Climbing FlightAware
12:21PM 43.1030 -91.2680 149° Southeast 467 537 33,800 720 Climbing FlightAware
12:22PM 43.0290 -91.2080 149° Southeast 470 541 34,000 120 Climbing FlightAware
12:23PM 42.9560 -91.1490 149° Southeast 468 539 34,000  Level FlightAware
12:23PM 42.8730 -91.0830 150° Southeast 462 532 34,000  Level FlightAware
12:24PM 42.7980 -91.0230 150° Southeast 459 528 34,000  Level FlightAware
12:25PM 42.7260 -90.9660 150° Southeast 456 525 34,000  Level FlightAware
12:26PM 42.6430 -90.8990 149° Southeast 453 521 34,000 120 Level FlightAware
12:26PM 42.5710 -90.8420 150° Southeast 454 522 34,200 660 Climbing FlightAware
12:27PM 42.4910 -90.7780 149° Southeast 451 519 35,000 540 Climbing FlightAware
12:28PM 42.4180 -90.7200 150° Southeast 453 521 35,000  Level FlightAware
12:28PM 42.3500 -90.6600 147° Southeast 454 522 35,000  Level FlightAware
12:29PM 42.2690 -90.5850 146° Southeast 454 522 35,000  Level FlightAware
12:30PM 42.2000 -90.5210 145° Southeast 453 521 35,000  Level FlightAware
12:30PM 42.1230 -90.4510 146° Southeast 453 521 35,000  Level FlightAware
12:31PM 42.0540 -90.3880 146° Southeast 454 522 35,000  Level FlightAware
12:32PM 41.9730 -90.3150 146° Southeast 454 522 35,000  Level FlightAware
12:33PM 41.9030 -90.2510 146° Southeast 455 524 35,000  Level FlightAware
12:33PM 41.8340 -90.1890 146° Southeast 455 524 35,000  Level FlightAware
12:34PM 41.7540 -90.1170 146° Southeast 455 524 35,000  Level FlightAware
12:35PM 41.6770 -90.0470 146° Southeast 458 527 35,000  Level FlightAware
12:35PM 41.6060 -89.9830 146° Southeast 459 528 35,000  Level FlightAware
12:36PM 41.5350 -89.9200 146° Southeast 462 532 35,000  Level FlightAware
12:37PM 41.4640 -89.8560 146° Southeast 465 535 35,000  Level FlightAware
12:37PM 41.3850 -89.7860 146° Southeast 469 540 35,000  Level FlightAware
12:38PM 41.3090 -89.7190 146° Southeast 470 541 35,000  Level FlightAware
12:39PM 41.2290 -89.6480 146° Southeast 472 543 35,000  Level FlightAware
12:40PM 41.1480 -89.5850 150° Southeast 471 542 35,000  Level FlightAware
12:40PM 41.0660 -89.5390 157° South 471 542 35,000  Level FlightAware
12:41PM 40.9860 -89.4970 158° South 471 542 35,000  Level FlightAware
12:42PM 40.8930 -89.4500 159° South 471 542 35,000  Level FlightAware
12:42PM 40.8100 -89.4070 159° South 469 540 35,000  Level FlightAware
12:43PM 40.7290 -89.3640 158° South 468 539 35,000  Level FlightAware
12:44PM 40.6370 -89.3170 159° South 465 535 35,000  Level FlightAware
12:44PM 40.5670 -89.2810 159° South 462 532 35,000  Level FlightAware
12:45PM 40.4700 -89.2310 159° South 461 531 35,000  Level FlightAware
12:46PM 40.3940 -89.1920 159° South 460 529 35,000  Level FlightAware
12:47PM 40.2950 -89.1400 158° South 460 529 35,000  Level FlightAware
12:48PM 40.1870 -89.0860 159° South 458 527 35,000  Level FlightAware
12:48PM 40.0850 -89.0340 159° South 457 526 35,000  Level FlightAware
12:49PM 40.0060 -88.9940 159° South 455 524 35,000  Level FlightAware
12:50PM 39.9190 -88.9500 159° South 455 524 35,000  Level FlightAware
12:51PM 39.8390 -88.9100 159° South 455 524 35,000  Level FlightAware
12:51PM 39.7630 -88.8710 158° South 456 525 35,000  Level FlightAware
12:52PM 39.6810 -88.8240 156° South 457 526 35,000  Level FlightAware
12:53PM 39.6000 -88.7730 154° Southeast 458 527 35,000  Level FlightAware
12:53PM 39.5110 -88.7180 155° Southeast 458 527 35,000  Level FlightAware
12:54PM 39.4550 -88.6840 155° Southeast 458 527 35,000  Level FlightAware
12:55PM 39.3790 -88.6360 154° Southeast 458 527 35,000  Level FlightAware
12:55PM 39.2720 -88.5710 155° Southeast 459 528 35,000  Level FlightAware
12:56PM 39.1950 -88.5240 155° Southeast 459 528 35,000  Level FlightAware
12:57PM 39.0910 -88.4600 154° Southeast 459 528 35,000  Level FlightAware
12:58PM 39.0220 -88.4190 155° Southeast 460 529 35,000  Level FlightAware
12:58PM 38.9380 -88.3670 154° Southeast 459 528 35,000  Level FlightAware
12:59PM 38.8730 -88.3270 154° Southeast 459 528 35,000  Level FlightAware
01:00PM 38.7640 -88.2630 155° Southeast 459 528 35,000  Level FlightAware
01:01PM 38.6830 -88.2140 155° Southeast 460 529 35,000  Level FlightAware
01:01PM 38.6020 -88.1650 155° Southeast 460 529 35,000  Level FlightAware
01:02PM 38.5220 -88.1180 155° Southeast 460 529 35,000 60 Level FlightAware
01:03PM 38.4390 -88.0680 155° Southeast 461 531 35,100 540 Climbing FlightAware
01:03PM 38.3600 -88.0210 155° Southeast 454 522 35,800 840 Climbing FlightAware
01:04PM 38.2780 -87.9720 155° Southeast 456 525 36,300 540 Climbing FlightAware
01:05PM 38.1900 -87.9200 155° Southeast 461 531 36,600 420 Climbing FlightAware
01:05PM 38.1120 -87.8740 155° Southeast 463 533 36,900 240 Climbing FlightAware
01:06PM 38.0260 -87.8230 155° Southeast 465 535 37,000 60 Climbing FlightAware
01:07PM 37.9490 -87.7750 154° Southeast 468 539 37,000  Level FlightAware
01:08PM 37.8830 -87.7030 139° Southeast 468 539 37,000  Level FlightAware
01:08PM 37.8170 -87.6150 133° Southeast 471 542 37,000  Level FlightAware
01:09PM 37.7580 -87.5350 133° Southeast 469 540 37,000  Level FlightAware
01:10PM 37.6890 -87.4440 134° Southeast 466 536 37,000  Level FlightAware
01:10PM 37.6300 -87.3650 133° Southeast 464 534 37,000  Level FlightAware
01:11PM 37.5690 -87.2850 134° Southeast 462 532 37,000  Level FlightAware
01:12PM 37.5040 -87.1990 134° Southeast 462 532 37,000  Level FlightAware
01:12PM 37.4450 -87.1210 134° Southeast 462 532 37,000  Level FlightAware
01:13PM 37.3780 -87.0330 134° Southeast 462 532 37,000  Level FlightAware
01:14PM 37.3100 -86.9660 142° Southeast 461 531 37,000  Level FlightAware
01:15PM 37.2280 -86.9050 149° Southeast 460 529 37,000  Level FlightAware
01:15PM 37.1550 -86.8530 150° Southeast 460 529 37,000  Level FlightAware
01:16PM 37.0830 -86.8010 150° Southeast 457 526 37,000  Level FlightAware
01:17PM 37.0200 -86.7570 151° Southeast 453 521 37,000  Level FlightAware
01:17PM 36.9410 -86.7000 150° Southeast 37,000  Level FlightAware
01:18PM 36.8744 -86.6519 150° Southeast 448 516 37,000  Level FlightAware ADS-B
01:18PM 36.8183 -86.6117 150° Southeast 450 518 37,000  Level FlightAware ADS-B
01:19PM 36.7636 -86.5728 150° Southeast 451 519 37,000  Level FlightAware ADS-B
01:19PM 36.7000 -86.5276 150° Southeast 452 520 37,000  Level FlightAware ADS-B
01:20PM 36.6510 -86.4930 150° Southeast 453 521 37,000  Level FlightAware
01:20PM 36.6185 -86.4698 150° Southeast 455 524 37,000  Level FlightAware ADS-B
01:21PM 36.4920 -86.3800 150° Southeast 458 527 37,000  Level FlightAware
01:22PM 36.4180 -86.3280 151° Southeast 459 528 37,000  Level FlightAware
01:22PM 36.4012 -86.3161 150° Southeast 459 528 37,000  Level FlightAware ADS-B
01:23PM 36.3456 -86.2770 150° Southeast 459 528 37,000  Level FlightAware ADS-B
01:23PM 36.2896 -86.2376 150° Southeast 459 528 37,000  Level FlightAware ADS-B
01:24PM 36.1870 -86.1650 150° Southeast 458 527 37,000  Level FlightAware
01:24PM 36.1592 -86.1460 151° Southeast 458 527 37,000  Level FlightAware ADS-B
01:25PM 36.1037 -86.1072 151° Southeast 457 526 37,000  Level FlightAware ADS-B
01:25PM 36.0480 -86.0684 151° Southeast 457 526 37,000  Level FlightAware ADS-B
01:26PM 35.9912 -86.0288 151° Southeast 457 526 37,000  Level FlightAware ADS-B
01:27PM 35.8950 -85.9619 151° Southeast 457 526 37,000  Level FlightAware ADS-B
01:27PM 35.8355 -85.9206 151° Southeast 457 526 37,000  Level FlightAware ADS-B
01:28PM 35.7799 -85.8822 151° Southeast 457 526 37,000  Level FlightAware ADS-B
01:28PM 35.7224 -85.8423 151° Southeast 457 526 37,000  Level FlightAware ADS-B
01:29PM 35.6665 -85.8035 151° Southeast 457 526 37,000  Level FlightAware ADS-B
01:30PM 35.5294 -85.7090 151° Southeast 457 526 37,000  Level FlightAware ADS-B
01:31PM 35.4735 -85.6706 151° Southeast 456 525 37,000  Level FlightAware ADS-B
01:31PM 35.4153 -85.6308 151° Southeast 456 525 37,000  Level FlightAware ADS-B
01:32PM 35.3588 -85.5920 151° Southeast 456 525 37,000  Level FlightAware ADS-B
01:32PM 35.2956 -85.5487 151° Southeast 456 525 37,000  Level FlightAware ADS-B
01:33PM 35.2396 -85.5106 151° Southeast 457 526 37,000  Level FlightAware ADS-B
01:33PM 35.1704 -85.4632 151° Southeast 458 527 37,000  Level FlightAware ADS-B
01:34PM 35.1137 -85.4248 151° Southeast 459 528 37,000  Level FlightAware ADS-B
01:34PM 35.0511 -85.3823 151° Southeast 459 528 37,000  Level FlightAware ADS-B
01:35PM 34.9937 -85.3433 151° Southeast 460 529 37,000  Level FlightAware ADS-B
01:35PM 34.9368 -85.3047 151° Southeast 460 529 37,000  Level FlightAware ADS-B
01:36PM 34.8767 -85.2641 151° Southeast 461 531 37,000  Level FlightAware ADS-B
01:36PM 34.8194 -85.2254 151° Southeast 462 532 37,000  Level FlightAware ADS-B
01:37PM 34.7623 -85.1869 151° Southeast 463 533 37,000  Level FlightAware ADS-B
01:37PM 34.7044 -85.1480 151° Southeast 463 533 37,000  Level FlightAware ADS-B
01:38PM 34.5990 -85.0770 151° Southeast 464 534 37,000  Level FlightAware
01:39PM 34.5336 -85.0333 151° Southeast 464 534 37,000  Level FlightAware ADS-B
01:39PM 34.4763 -84.9950 151° Southeast 465 535 37,000  Level FlightAware ADS-B
01:40PM 34.4175 -84.9559 151° Southeast 466 536 37,000  Level FlightAware ADS-B
01:40PM 34.3603 -84.9178 151° Southeast 466 536 37,000  Level FlightAware ADS-B
01:41PM 34.2969 -84.8755 151° Southeast 467 537 37,000  Level FlightAware ADS-B
01:42PM 34.2391 -84.8371 151° Southeast 467 537 37,000  Level FlightAware ADS-B
01:43PM 34.1263 -84.7622 151° Southeast 468 539 37,000  Level FlightAware ADS-B
01:43PM 34.0440 -84.7079 151° Southeast 469 540 37,000  Level FlightAware ADS-B
01:44PM 33.9670 -84.6570 151° Southeast 468 539 37,000  Level FlightAware
01:44PM 33.9132 -84.6217 151° Southeast 469 540 37,000  Level FlightAware ADS-B
01:45PM 33.8644 -84.5904 152° Southeast 468 539 37,000  Level FlightAware ADS-B
01:45PM 33.8040 -84.5580 156° South 467 537 37,000  Level FlightAware
01:46PM 33.7552 -84.5322 156° South 467 537 37,000  Level FlightAware ADS-B
01:47PM 33.6360 -84.4680 156° South 468 539 37,000  Level FlightAware
01:47PM 33.5560 -84.4250 156° South 469 540 37,000  Level FlightAware
01:48PM 33.4960 -84.3930 156° South 469 540 37,000  Level FlightAware
01:49PM 33.4160 -84.3510 156° South 469 540 37,000  Level FlightAware
01:49PM 33.3837 -84.3334 156° South 470 541 37,000  Level FlightAware ADS-B
01:49PM 33.3230 -84.3020 157° South 470 541 37,000  Level FlightAware
01:50PM 33.3016 -84.2901 155° Southeast 470 541 37,000  Level FlightAware ADS-B
01:50PM 33.2360 -84.2560 156° South 470 541 37,000  Level FlightAware
01:51PM 33.1560 -84.2140 156° South 468 539 37,000  Level FlightAware
01:52PM 33.0660 -84.1660 156° South 467 537 37,000  Level FlightAware
01:52PM 33.0010 -84.1330 157° South 464 534 37,000  Level FlightAware
01:53PM 32.9090 -84.0840 156° South 460 529 37,000  Level FlightAware
01:54PM 32.8290 -84.0430 157° South 458 527 37,000  Level FlightAware
01:54PM 32.7540 -84.0040 156° South 457 526 37,000  Level FlightAware
01:55PM 32.6650 -83.9580 156° South 457 526 37,000  Level FlightAware
01:56PM 32.5780 -83.9130 156° South 455 524 37,000  Level FlightAware
01:56PM 32.5220 -83.8840 156° South 455 524 37,000  Level FlightAware
01:57PM 32.4200 -83.8320 157° South 456 525 37,000  Level FlightAware
01:58PM 32.3590 -83.8000 156° South 458 527 37,000  Level FlightAware
01:59PM 32.2380 -83.7380 157° South 459 528 37,000  Level FlightAware
01:59PM 32.1720 -83.7030 156° South 459 528 37,000  Level FlightAware
02:00PM 32.1060 -83.6680 156° South 459 528 37,000  Level FlightAware
02:01PM 32.0400 -83.6340 156° South 459 528 37,000  Level FlightAware
02:02PM 31.9580 -83.5900 156° South 459 528 37,000  Level FlightAware
02:02PM 31.8920 -83.5560 156° South 459 528 37,000  Level FlightAware
02:03PM 31.8260 -83.5210 156° South 459 528 37,000  Level FlightAware
02:04PM 31.7600 -83.4870 156° South 459 528 37,000  Level FlightAware
02:05PM 31.5610 -83.3860 157° South 454 522 37,000  Level FlightAware
02:05PM 31.4970 -83.3490 154° Southeast 454 522 37,000  Level FlightAware
02:06PM 31.4330 -83.3120 154° Southeast 454 522 37,000  Level FlightAware
02:07PM 31.3690 -83.2760 154° Southeast 454 522 37,000  Level FlightAware
02:07PM 31.2890 -83.2300 154° Southeast 454 522 37,000  Level FlightAware
02:08PM 31.2240 -83.1930 154° Southeast 454 522 37,000  Level FlightAware
02:09PM 31.1600 -83.1570 154° Southeast 454 522 37,000  Level FlightAware
02:09PM 31.0960 -83.1200 154° Southeast 454 522 37,000  Level FlightAware
02:10PM 31.0320 -83.0840 154° Southeast 454 522 37,000  Level FlightAware
02:11PM 30.9520 -83.0380 154° Southeast 454 522 37,000  Level FlightAware
02:12PM 30.8870 -83.0010 154° Southeast 454 522 37,000  Level FlightAware
02:12PM 30.8230 -82.9650 154° Southeast 454 522 37,000  Level FlightAware
02:13PM 30.7590 -82.9290 154° Southeast 454 522 37,000  Level FlightAware
02:14PM 30.6950 -82.8920 154° Southeast 454 522 37,000 -7,740 Level FlightAware
02:14PM 30.4586 -82.7311 154° Southeast 458 527 27,000 -1,980 Descending Jacksonville Center
02:20PM 29.7930 -82.3720 154° Southeast 456 525 25,000 -360 Descending FlightAware
02:20PM 29.7300 -82.3410 157° South 456 525 25,000  Level FlightAware
02:21PM 29.6470 -82.3010 157° South 456 525 25,000 -1,920 Level FlightAware
02:22PM 29.5500 -82.2550 158° South 445 512 22,200 -1,980 Descending FlightAware
02:23PM 29.4740 -82.2180 157° South 445 512 22,200 -2,040 Level FlightAware
02:23PM 29.4040 -82.1850 158° South 422 486 19,500 -3,240 Descending FlightAware
02:24PM 29.3180 -82.1440 157° South 407 468 17,900 -2,100 Descending FlightAware
02:25PM 29.2400 -82.1070 158° South 393 452 16,400 -1,860 Descending FlightAware
02:25PM 29.1790 -82.0780 157° South 381 438 15,300 -1,380 Descending FlightAware
02:26PM 29.0920 -82.0350 157° South 373 429 14,300 -1,320 Descending FlightAware
02:27PM 29.0010 -81.9920 158° South 359 413 12,800 -1,980 Descending FlightAware
02:28PM 28.9440 -81.9660 158° South 333 383 11,200 -1,440 Descending FlightAware
02:29PM 28.8820 -81.9320 154° Southeast 302 348 10,900 -300 Descending FlightAware
02:29PM 28.8670 -81.9160 137° Southeast 307 353 10,900 -240 Level FlightAware
02:29PM 28.8570 -81.8970 121° Southeast 301 346 10,800 -1,140 Descending FlightAware
02:30PM 28.8370 -81.8360 111° Southeast 296 341 9,900 -1,320 Descending FlightAware
02:30PM 28.8250 -81.7990 110° East 287 330 9,300 -1,020 Descending FlightAware
02:31PM 28.8120 -81.7550 109° East 278 320 8,900 -540 Descending FlightAware
02:31PM 28.8080 -81.7400 107° East 277 319 8,900  Level FlightAware
02:31PM 28.7970 -81.7050 110° East 273 314 8,900  Level FlightAware
02:32PM 28.7840 -81.6590 108° East 273 314 8,900  Level FlightAware
02:32PM 28.7740 -81.6250 109° East 275 316 8,900 -480 Level FlightAware
02:33PM 28.7610 -81.5830 109° East 270 311 8,500 -840 Descending FlightAware
02:33PM 28.7490 -81.5450 110° East 255 293 8,100 -1,320 Descending FlightAware
02:34PM 28.7390 -81.5100 108° East 262 302 7,300 -1,680 Descending FlightAware
02:34PM 28.7290 -81.4780 110° East 262 302 6,700 -1,740 Descending FlightAware
02:34PM 28.7190 -81.4530 115° Southeast 253 291 6,000 -2,400 Descending FlightAware
02:35PM 28.6990 -81.4280 132° Southeast 260 299 4,900 -2,100 Descending FlightAware
02:35PM 28.6720 -81.4000 138° Southeast 250 288 4,100 -1,560 Descending FlightAware
02:35PM 28.6680 -81.3950 132° Southeast 245 282 4,000 -1,080 Descending FlightAware
02:36PM 28.6390 -81.3650 138° Southeast 227 261 3,400 -900 Descending FlightAware
02:36PM 28.6200 -81.3460 139° Southeast 220 253 3,100 -600 Descending FlightAware
02:37PM 28.5980 -81.3240 139° Southeast 198 228 2,900 -300 Descending FlightAware
02:37PM 28.5880 -81.3130 136° Southeast 181 208 2,900 -420 Level FlightAware
02:38PM 28.5640 -81.2990 153° Southeast 201 231 2,600 -660 Descending FlightAware
02:38PM 28.5430 -81.2990 180° South 180 207 2,300 -900 Descending FlightAware
02:38PM 28.5280 -81.2990 180° South 178 205 2,000 -960 Descending FlightAware
02:39PM 28.5040 -81.2990 180° South 164 189 1,600 -900 Descending FlightAware
02:39PM 28.4870 -81.2990 180° South 143 165 1,200 -840 Descending FlightAware
02:40PM 28.4700 -81.2990 180° South 145 167 900 -780 Descending FlightAware
02:40PM 28.4500 -81.2980 177° South 134 154 500 -840 Descending FlightAware
02:41PM 28.4300 -81.2980 180° South 133 153 100 -840 Descending FlightAware